Time;durP1;ratioP1;P1;durP2;ratioP2;P2;SDS_P1;SDS_P2;PMS_P1;PMS_P2;Temp;Humidity;BMP_temperature;BMP_pressure;BME280_temperature;BME280_humidity;BME280_pressure;Samples;Min_cycle;Max_cycle;Signal;HPM_P1;HPM_P2
2022/02/06 00:01:37;;;;;;;12.15;5.70;;;;;;;4.19;100.00;99861.78;5096415;27;20023;-86
2022/02/06 00:04:03;;;;;;;10.25;3.92;;;;;;;4.27;100.00;99865.50;5096113;27;20062;-86
2022/02/06 00:06:32;;;;;;;9.57;3.70;;;;;;;4.29;100.00;99861.75;5096939;27;20061;-86
2022/02/06 00:08:57;;;;;;;5.55;3.28;;;;;;;4.28;100.00;99860.06;5112620;27;20130;-86
2022/02/06 00:11:22;;;;;;;5.90;3.33;;;;;;;4.31;100.00;99854.50;5095693;27;20092;-86
2022/02/06 00:13:48;;;;;;;6.70;3.40;;;;;;;4.32;100.00;99852.69;5095586;27;20061;-85
2022/02/06 00:16:14;;;;;;;6.00;3.40;;;;;;;4.35;100.00;99844.47;5113200;27;20138;-85
2022/02/06 00:18:42;;;;;;;5.40;3.40;;;;;;;4.36;100.00;99849.63;5112689;27;20070;-85
2022/02/06 00:21:12;;;;;;;6.07;3.28;;;;;;;4.34;100.00;99834.91;5095700;27;20042;-85
2022/02/06 00:23:37;;;;;;;8.48;4.18;;;;;;;4.38;100.00;99846.84;5095756;27;20791;-86
2022/02/06 00:26:13;;;;;;;5.30;3.10;;;;;;;4.33;100.00;99834.06;5112682;28;20075;-85
2022/02/06 00:28:54;;;;;;;;;;;;;;;4.36;100.00;99833.78;5096068;27;20346;-85
2022/02/06 00:31:31;;;;;;;5.38;3.17;;;;;;;4.36;100.00;99833.78;5112648;27;19912;-85
2022/02/06 00:39:16;;;;;;;5.40;3.17;;;;;;;4.44;100.00;99809.25;5112590;28;20492;-85
2022/02/06 00:41:41;;;;;;;5.03;2.53;;;;;;;4.47;100.00;99827.44;5095651;28;20057;-85
2022/02/06 00:44:08;;;;;;;6.50;2.73;;;;;;;4.53;100.00;99800.44;5098855;27;20131;-86
2022/02/06 00:46:36;;;;;;;6.28;2.50;;;;;;;4.56;100.00;99794.84;5114967;22;20092;-78
2022/02/06 00:49:14;;;;;;;4.70;2.90;;;;;;;4.55;100.00;99792.38;5096369;28;20106;-78
2022/02/06 00:52:30;;;;;;;7.30;3.00;;;;;;;4.50;100.00;99806.03;5113263;28;20032;-78
2022/02/06 00:54:25;;;;;;;5.13;2.53;;;;;;;4.59;100.00;99799.03;5105496;28;20610;-78
2022/02/06 00:56:51;;;;;;;6.03;2.67;;;;;;;4.65;100.00;99796.63;5117436;27;20038;-78
2022/02/06 00:59:17;;;;;;;4.25;2.38;;;;;;;4.57;100.00;99788.59;5100665;27;20039;-79
2022/02/06 01:01:43;;;;;;;7.82;2.60;;;;;;;4.52;100.00;99796.16;5136164;27;20338;-78
2022/02/06 01:04:12;;;;;;;;;;;;;;;4.62;100.00;99791.63;5117583;27;20035;-78
2022/02/06 01:06:38;;;;;;;5.70;2.45;;;;;;;4.57;100.00;99775.38;5116795;27;19960;-77
2022/02/06 01:09:04;;;;;;;5.75;2.45;;;;;;;4.51;100.00;99749.53;5099230;27;20027;-79
2022/02/06 01:11:32;;;;;;;4.68;1.98;;;;;;;4.63;100.00;99771.31;5116297;27;20027;-78
2022/02/06 01:16:51;;;;;;;6.15;2.22;;;;;;;4.55;100.00;99758.84;5134438;27;20027;-78
2022/02/06 01:19:22;;;;;;;3.87;2.23;;;;;;;4.60;100.00;99761.03;5115867;27;20492;-78
2022/02/06 01:22:03;;;;;;;5.30;2.45;;;;;;;4.63;100.00;99758.91;5098669;27;20035;-77
2022/02/06 01:24:42;;;;;;;3.67;2.33;;;;;;;4.61;100.00;99747.69;5098542;27;20035;-78
2022/02/06 01:27:14;;;;;;;2.78;1.60;;;;;;;4.59;100.00;99731.13;5098632;27;20082;-78
2022/02/06 01:29:57;;;;;;;4.15;1.80;;;;;;;4.64;100.00;99747.38;5098639;27;20084;-78
2022/02/06 01:32:29;;;;;;;4.95;1.73;;;;;;;4.60;100.00;99719.56;5116376;27;20035;-78
2022/02/06 01:35:06;;;;;;;3.22;1.63;;;;;;;4.60;100.00;99729.31;5115075;27;20388;-79
2022/02/06 01:37:41;;;;;;;3.58;2.60;;;;;;;4.60;100.00;99730.13;5098663;27;20027;-78
2022/02/06 01:40:17;;;;;;;5.80;1.92;;;;;;;4.65;100.00;99719.94;5115818;27;20396;-78
2022/02/06 01:42:56;;;;;;;2.75;1.60;;;;;;;4.63;100.00;99706.03;5098798;27;20043;-78
2022/02/06 02:01:46;;;;;;;5.40;1.92;;;;;;;4.80;100.00;99677.13;5133158;27;20039;-78
2022/02/06 02:05:31;;;;;;;6.38;1.90;;;;;;;4.80;100.00;99667.38;5114820;27;20031;-78
2022/02/06 02:10:08;;;;;;;1.92;1.60;;;;;;;4.86;100.00;99665.94;5114813;27;20055;-78
2022/02/06 02:13:01;;;;;;;3.08;1.48;;;;;;;4.89;100.00;99647.09;5114712;27;20456;-78
2022/02/06 02:18:22;;;;;;;3.47;1.50;;;;;;;4.91;100.00;99631.91;5114754;27;20508;-78
2022/02/06 02:21:03;;;;;;;3.42;2.00;;;;;;;4.94;100.00;99638.72;5114805;27;20495;-78
2022/02/06 02:45:36;;;;;;;4.60;1.70;;;;;;;4.91;100.00;99610.75;5092712;28;20023;-78
2022/02/06 02:47:48;;;;;;;;;;;;;;;4.95;100.00;99613.94;5110521;28;20043;-78
2022/02/06 02:50:18;;;;;;;2.78;1.90;;;;;;;4.91;100.00;99605.47;5094348;28;19912;-78
2022/02/06 03:00:44;;;;;;;4.40;2.15;;;;;;;4.92;100.00;99599.22;5093512;28;20697;-78
2022/02/06 03:03:15;;;;;;;3.40;2.10;;;;;;;4.89;100.00;99593.38;5093425;28;20039;-78
2022/02/06 03:05:42;;;;;;;4.75;1.92;;;;;;;4.89;100.00;99596.84;5092047;28;20043;-78
2022/02/06 03:08:09;;;;;;;3.47;2.33;;;;;;;4.93;100.00;99578.88;5092696;28;20028;-79
2022/02/06 03:10:35;;;;;;;4.75;1.90;;;;;;;4.95;100.00;99585.66;5076549;28;20454;-78
2022/02/06 03:13:05;;;;;;;2.90;2.05;;;;;;;4.95;100.00;99567.16;5076172;28;20461;-78
2022/02/06 03:15:45;;;;;;;4.35;2.58;;;;;;;4.91;100.00;99557.03;5109789;28;20035;-78
2022/02/06 03:18:23;;;;;;;2.80;1.88;;;;;;;4.98;100.00;99556.25;5093681;28;20043;-78
2022/02/06 03:20:52;;;;;;;5.30;1.98;;;;;;;4.95;100.00;99550.47;5076345;28;20042;-78
2022/02/06 03:23:17;;;;;;;5.25;2.70;;;;;;;4.94;100.00;99544.34;5109795;28;20076;-78
2022/02/06 03:25:50;;;;;;;2.53;1.80;;;;;;;4.98;100.00;99542.22;5076100;28;20035;-77
2022/02/06 03:28:16;;;;;;;5.05;1.95;;;;;;;4.98;100.00;99535.09;5093478;28;20035;-78
2022/02/06 03:30:41;;;;;;;4.00;2.17;;;;;;;5.00;100.00;99540.25;5076642;28;20020;-78
2022/02/06 03:33:07;;;;;;;2.83;1.23;;;;;;;4.99;100.00;99534.13;5091386;28;20281;-79
2022/02/06 03:35:33;;;;;;;2.20;1.30;;;;;;;4.99;100.00;99531.47;5091436;28;20262;-78
2022/02/06 03:37:58;;;;;;;2.55;1.35;;;;;;;4.97;100.00;99507.00;5092159;28;20040;-79
2022/02/06 03:40:27;;;;;;;2.88;1.48;;;;;;;5.02;100.00;99511.81;5075562;28;20024;-78
2022/02/06 03:43:11;;;;;;;2.50;1.45;;;;;;;5.04;100.00;99515.16;5091936;28;20039;-78
2022/02/06 03:45:44;;;;;;;2.38;1.08;;;;;;;4.96;100.00;99488.63;5108955;28;20042;-78
2022/02/06 03:48:23;;;;;;;4.47;1.50;;;;;;;5.02;100.00;99502.06;5092665;28;20032;-78
2022/02/06 03:50:54;;;;;;;6.43;1.77;;;;;;;5.01;100.00;99478.41;5091853;28;20496;-78
2022/02/06 03:53:23;;;;;;;2.30;1.23;;;;;;;5.04;100.00;99493.97;5092060;28;20039;-79
2022/02/06 03:55:50;;;;;;;5.03;1.83;;;;;;;5.00;100.00;99476.75;5108169;28;20055;-78
2022/02/06 03:58:16;;;;;;;2.90;1.10;;;;;;;5.01;100.00;99486.34;5074257;28;20032;-79
2022/02/06 04:00:41;;;;;;;4.90;1.23;;;;;;;5.03;100.00;99485.22;5075186;28;20024;-79
2022/02/06 04:03:07;;;;;;;3.65;1.85;;;;;;;4.96;100.00;99470.13;5075399;28;20058;-78
2022/02/06 04:05:32;;;;;;;1.70;1.25;;;;;;;5.03;100.00;99477.28;5092079;28;20039;-78
2022/02/06 04:07:58;;;;;;;1.63;1.08;;;;;;;5.06;100.00;99466.38;5092483;28;20042;-78
2022/02/06 04:10:31;;;;;;;2.60;1.80;;;;;;;5.00;100.00;99466.19;5075469;28;20041;-78
2022/02/06 04:12:58;;;;;;;4.40;1.40;;;;;;;5.11;100.00;99473.03;5092204;28;20320;-78
2022/02/06 04:15:27;;;;;;;1.85;1.23;;;;;;;5.11;100.00;99467.72;5110106;28;20024;-77
2022/02/06 04:18:09;;;;;;;2.88;1.33;;;;;;;5.13;100.00;99461.28;5109856;28;20080;-79
2022/02/06 04:20:35;;;;;;;3.05;1.17;;;;;;;5.13;100.00;99455.13;5110133;28;20035;-78
2022/02/06 04:23:00;;;;;;;1.67;1.10;;;;;;;5.12;100.00;99469.38;5092229;28;20050;-78
2022/02/06 04:25:25;;;;;;;5.27;1.83;;;;;;;5.12;100.00;99459.59;5110023;28;20284;-78
2022/02/06 04:27:51;;;;;;;1.77;1.20;;;;;;;5.16;100.00;99457.50;5081846;23;20668;-76
2022/02/06 04:30:16;;;;;;;12.47;1.90;;;;;;;5.25;100.00;99451.25;5084426;28;20506;-76
2022/02/06 04:32:42;;;;;;;3.40;1.20;;;;;;;5.25;100.00;99443.31;5073597;28;20020;-77
2022/02/06 04:35:16;;;;;;;5.75;1.30;;;;;;;5.19;100.00;99436.00;5108112;28;20032;-77
2022/02/06 04:38:03;;;;;;;3.85;1.52;;;;;;;5.21;100.00;99441.97;5090249;28;20130;-76
2022/02/06 04:40:45;;;;;;;4.30;1.52;;;;;;;5.26;100.00;99442.31;5090090;28;20043;-76
2022/02/06 04:43:37;;;;;;;3.25;1.17;;;;;;;5.25;100.00;99438.00;5090373;28;20031;-76
2022/02/06 05:23:25;;;;;;;9.75;3.45;;;;;;;5.39;100.00;99410.94;5107981;28;20030;-77
2022/02/06 05:28:30;;;;;;;18.80;4.13;;;;;;;5.48;100.00;99411.78;5088163;28;20123;-77
2022/02/06 05:31:08;;;;;;;19.65;4.68;;;;;;;5.53;100.00;99408.66;5069170;28;20024;-77
2022/02/06 05:33:35;;;;;;;28.73;5.63;;;;;;;5.49;100.00;99413.44;5052199;28;20043;-77
2022/02/06 05:36:02;;;;;;;19.83;4.55;;;;;;;5.52;100.00;99393.75;5084846;28;20028;-76
2022/02/06 05:38:28;;;;;;;30.10;5.28;;;;;;;5.49;100.00;99387.78;5050990;28;20043;-77
2022/02/06 05:40:53;;;;;;;22.70;5.37;;;;;;;5.55;100.00;99388.09;5055614;28;20025;-77
2022/02/06 05:43:19;;;;;;;31.03;4.77;;;;;;;5.54;100.00;99378.53;5053159;28;20286;-76
2022/02/06 05:45:44;;;;;;;38.37;5.93;;;;;;;5.55;100.00;99388.09;5043162;28;20122;-76
2022/02/06 05:48:09;;;;;;;26.63;4.43;;;;;;;5.50;100.00;99378.84;5056185;28;20028;-76
2022/02/06 05:50:39;;;;;;;31.20;5.90;;;;;;;5.57;100.00;99368.44;5056276;28;20081;-77
2022/02/06 05:53:05;;;;;;;24.90;5.68;;;;;;;5.52;100.00;99365.44;5072473;28;20122;-75
2022/02/06 05:55:30;;;;;;;;;;;;;;;5.55;100.00;99362.47;5055931;28;20055;-75
2022/02/06 05:57:56;;;;;;;30.73;6.07;;;;;;;5.56;100.00;99355.38;5072630;28;19983;-76
2022/02/06 06:00:21;;;;;;;29.40;5.10;;;;;;;5.56;100.00;99350.88;5055883;28;20819;-76
2022/02/06 06:02:47;;;;;;;28.70;6.27;;;;;;;5.56;100.00;99350.88;5090083;28;20278;-78
2022/02/06 06:05:12;;;;;;;31.47;7.40;;;;;;;5.58;100.00;99318.97;5072138;28;20508;-76
2022/02/06 06:07:44;;;;;;;25.60;5.93;;;;;;;5.62;100.00;99317.63;5055780;28;20044;-77
2022/02/06 06:10:09;;;;;;;26.27;5.22;;;;;;;5.59;100.00;99323.25;5055764;28;20485;-78
2022/02/06 06:12:36;;;;;;;42.60;6.68;;;;;;;5.54;100.00;99312.34;5072396;28;20082;-76
2022/02/06 06:15:02;;;;;;;26.13;5.47;;;;;;;5.55;100.00;99311.34;5055162;28;20661;-77
2022/02/06 06:17:27;;;;;;;24.10;6.10;;;;;;;5.58;100.00;99301.25;5055487;28;20031;-77
2022/02/06 06:19:55;;;;;;;24.93;4.47;;;;;;;5.59;100.00;99283.53;5072475;28;20168;-76
2022/02/06 06:22:21;;;;;;;16.98;4.30;;;;;;;5.58;100.00;99295.13;5055815;28;20034;-76
2022/02/06 06:24:52;;;;;;;26.80;3.63;;;;;;;5.53;100.00;99287.69;5090155;28;20298;-75
2022/02/06 06:27:18;;;;;;;25.17;6.63;;;;;;;5.54;100.00;99288.50;5055441;28;20040;-77
2022/02/06 06:29:45;;;;;;;19.88;3.97;;;;;;;5.47;100.00;99299.75;5072247;28;20020;-77
2022/02/06 06:32:10;;;;;;;26.27;4.22;;;;;;;5.49;100.00;99287.19;5072105;28;20055;-77
2022/02/06 06:34:35;;;;;;;30.60;5.30;;;;;;;5.43;100.00;99277.28;5072214;28;20024;-77
2022/02/06 06:37:01;;;;;;;31.87;6.00;;;;;;;5.43;100.00;99277.28;5055288;28;20028;-76
2022/02/06 06:39:42;;;;;;;30.55;4.68;;;;;;;5.41;100.00;99275.78;5055132;28;20054;-76
2022/02/06 06:42:09;;;;;;;24.67;5.10;;;;;;;5.44;100.00;99294.78;5055005;28;20039;-77
2022/02/06 06:44:35;;;;;;;39.90;5.22;;;;;;;5.49;100.00;99275.78;5054289;28;20032;-76
2022/02/06 06:47:01;;;;;;;29.80;4.35;;;;;;;5.47;100.00;99283.03;5070833;28;20744;-77
2022/02/06 06:49:26;;;;;;;25.83;3.90;;;;;;;5.54;100.00;99277.91;5071418;28;20052;-76
2022/02/06 06:51:55;;;;;;;34.67;6.47;;;;;;;5.41;100.00;99271.31;5055064;28;20054;-76
2022/02/06 06:54:22;;;;;;;30.65;6.35;;;;;;;5.41;100.00;99279.25;5071349;28;20024;-76
2022/02/06 06:59:29;;;;;;;30.38;5.70;;;;;;;5.48;100.00;99282.06;5089300;28;20222;-77
2022/02/06 07:02:16;;;;;;;21.48;4.93;;;;;;;5.47;100.00;99286.50;5054941;28;20044;-77
2022/02/06 07:04:40;;;;;;;29.08;5.30;;;;;;;5.38;100.00;99287.50;5070672;28;20075;-76
2022/02/06 07:07:06;;;;;;;43.53;7.03;;;;;;;5.40;100.00;99277.59;5071480;28;20058;-77
2022/02/06 07:09:31;;;;;;;33.75;6.07;;;;;;;5.39;100.00;99283.88;5070939;28;20063;-76
2022/02/06 07:11:56;;;;;;;31.93;5.70;;;;;;;5.42;100.00;99291.47;5071434;28;20127;-77
2022/02/06 07:14:22;;;;;;;26.10;4.55;;;;;;;5.39;100.00;99275.94;5070423;28;20043;-76
2022/02/06 07:16:47;;;;;;;22.53;6.00;;;;;;;5.42;100.00;99278.25;5053820;28;20113;-76
2022/02/06 07:19:13;;;;;;;27.33;4.67;;;;;;;5.41;100.00;99273.97;5070239;28;20028;-76
2022/02/06 07:21:39;;;;;;;22.47;4.13;;;;;;;5.44;100.00;99278.09;5053431;28;20477;-75
2022/02/06 07:24:06;;;;;;;25.25;4.32;;;;;;;5.43;100.00;99279.91;5088342;28;20043;-75
2022/02/06 07:26:31;;;;;;;;;;;;;;;5.43;100.00;99274.63;5070687;28;20630;-75
2022/02/06 07:29:00;;;;;;;16.75;2.65;;;;;;;5.40;100.00;99279.41;5053577;28;19922;-76
2022/02/06 07:31:25;;;;;;;26.23;5.28;;;;;;;5.36;100.00;99264.84;5053634;28;20050;-75
2022/02/06 07:33:51;;;;;;;26.58;5.18;;;;;;;5.29;100.00;99249.66;5069471;28;20032;-75
2022/02/06 07:36:18;;;;;;;27.05;4.50;;;;;;;5.29;100.00;99252.28;5052063;28;20075;-75
2022/02/06 07:38:44;;;;;;;27.20;4.68;;;;;;;5.27;100.00;99261.38;5068481;28;20035;-75
2022/02/06 07:41:10;;;;;;;26.35;4.03;;;;;;;5.30;100.00;99261.06;5054702;28;20032;-75
2022/02/06 07:43:37;;;;;;;15.68;2.95;;;;;;;5.28;100.00;99274.44;5052738;28;20032;-75
2022/02/06 07:46:07;;;;;;;;;;;;;;;5.29;100.00;99268.16;5070189;28;20028;-77
2022/02/06 07:48:33;;;;;;;24.50;3.92;;;;;;;5.29;100.00;99259.38;5068915;28;19944;-76
2022/02/06 07:50:58;;;;;;;15.50;2.13;;;;;;;5.31;100.00;99253.94;5069099;28;20438;-76
2022/02/06 07:53:24;;;;;;;22.43;3.63;;;;;;;5.30;100.00;99250.47;5068748;28;20965;-76
2022/02/06 07:55:49;;;;;;;11.15;2.42;;;;;;;5.33;100.00;99244.84;5068440;28;20754;-76
2022/02/06 07:58:14;;;;;;;18.53;5.77;;;;;;;5.32;100.00;99245.00;5061604;28;20168;-76
2022/02/06 08:00:40;;;;;;;18.77;4.43;;;;;;;5.33;100.00;99242.19;5046466;28;20028;-76
2022/02/06 08:03:08;;;;;;;20.75;4.63;;;;;;;5.30;100.00;99245.16;5036167;28;20024;-76
2022/02/06 08:05:34;;;;;;;12.33;2.43;;;;;;;5.40;100.00;99240.53;5048398;28;20056;-76
2022/02/06 08:08:00;;;;;;;13.50;2.67;;;;;;;5.38;100.00;99239.03;5048757;28;20043;-76
2022/02/06 08:10:27;;;;;;;13.23;3.17;;;;;;;5.34;100.00;99229.78;5049145;28;20822;-75
2022/02/06 08:12:56;;;;;;;15.68;3.35;;;;;;;5.36;100.00;99207.47;5048881;28;20068;-75
2022/02/06 08:15:22;;;;;;;13.57;2.72;;;;;;;5.33;100.00;99213.06;5038540;28;20043;-76
2022/02/06 08:17:47;;;;;;;17.40;3.15;;;;;;;5.28;100.00;99204.81;5065637;28;20076;-76
2022/02/06 08:20:15;;;;;;;13.50;2.60;;;;;;;5.36;100.00;99201.31;5048712;28;20064;-76
2022/02/06 08:22:42;;;;;;;16.15;3.45;;;;;;;5.28;100.00;99183.63;5066840;28;20287;-76
2022/02/06 08:25:09;;;;;;;17.17;3.40;;;;;;;5.25;100.00;99178.69;5048359;28;20375;-76
2022/02/06 08:27:34;;;;;;;17.73;2.78;;;;;;;5.34;100.00;99183.00;5031949;28;20039;-76
2022/02/06 08:30:00;;;;;;;17.08;2.75;;;;;;;5.36;100.00;99173.06;5036817;28;20103;-76
2022/02/06 08:32:26;;;;;;;16.35;3.95;;;;;;;5.37;100.00;99165.94;5072869;28;20038;-76
2022/02/06 08:34:53;;;;;;;15.48;2.30;;;;;;;5.40;100.00;99147.06;5068158;28;20094;-75
2022/02/06 08:37:19;;;;;;;15.45;2.65;;;;;;;5.36;100.00;99146.59;5067955;28;20253;-75
2022/02/06 08:39:45;;;;;;;14.68;2.30;;;;;;;5.48;100.00;99155.84;5086282;28;20020;-75
2022/02/06 08:42:12;;;;;;;27.02;4.95;;;;;;;5.57;100.00;99148.72;5051665;28;20032;-76
2022/02/06 08:44:40;;;;;;;12.95;2.33;;;;;;;5.77;100.00;99150.97;5085877;28;20024;-75
2022/02/06 08:47:07;;;;;;;8.60;1.92;;;;;;;5.90;100.00;99135.38;5051406;28;20031;-75
2022/02/06 08:49:33;;;;;;;16.05;3.42;;;;;;;5.81;100.00;99126.63;5068214;28;20023;-76
2022/02/06 08:51:58;;;;;;;11.95;2.35;;;;;;;5.80;100.00;99135.53;5086422;28;20036;-76
2022/02/06 08:54:33;;;;;;;14.27;2.57;;;;;;;5.77;100.00;99106.75;5085636;28;20046;-76
2022/02/06 08:57:01;;;;;;;12.13;2.13;;;;;;;5.74;100.00;99104.47;5086214;28;20040;-76
2022/02/06 08:59:30;;;;;;;17.60;2.92;;;;;;;5.70;100.00;99097.84;5067910;28;20032;-77
2022/02/06 09:01:57;;;;;;;15.02;2.67;;;;;;;5.70;100.00;99097.84;5051511;28;20036;-75
2022/02/06 09:04:22;;;;;;;12.77;2.85;;;;;;;5.76;100.00;99091.88;5067706;28;20028;-76
2022/02/06 09:06:48;;;;;;;6.67;1.70;;;;;;;5.82;100.00;99101.78;5081450;28;20036;-76
2022/02/06 09:09:15;;;;;;;17.97;2.37;;;;;;;5.97;100.00;99067.47;5069709;28;20020;-75
2022/02/06 09:11:40;;;;;;;14.13;2.42;;;;;;;6.15;100.00;99067.19;5035187;28;20044;-76
2022/02/06 09:14:05;;;;;;;12.03;2.00;;;;;;;6.09;100.00;99044.88;5034804;28;20020;-76
2022/02/06 09:16:31;;;;;;;7.60;1.70;;;;;;;6.08;100.00;99048.50;5069135;28;20036;-75
2022/02/06 09:18:56;;;;;;;22.73;2.77;;;;;;;6.13;100.00;99040.91;5051967;28;20033;-76
2022/02/06 09:21:23;;;;;;;10.50;3.03;;;;;;;6.09;100.00;99033.47;5035079;28;20036;-76
2022/02/06 09:23:49;;;;;;;16.98;2.70;;;;;;;6.19;100.00;99027.94;5034911;28;20016;-76
2022/02/06 09:26:15;;;;;;;15.93;2.30;;;;;;;6.19;100.00;99022.63;5034548;28;20044;-75
2022/02/06 09:28:41;;;;;;;14.07;3.03;;;;;;;6.18;100.00;99013.03;5035082;28;20417;-75
2022/02/06 09:31:06;;;;;;;13.75;3.40;;;;;;;6.12;100.00;99020.69;5034717;28;20046;-75
2022/02/06 09:35:57;;;;;;;7.30;2.10;;;;;;;6.06;100.00;99002.00;5051897;28;20086;-77
2022/02/06 09:38:22;;;;;;;6.07;1.77;;;;;;;6.03;100.00;99012.97;5034479;28;20278;-76
2022/02/06 09:40:51;;;;;;;15.57;1.77;;;;;;;6.05;100.00;99009.13;5069318;28;20032;-76
2022/02/06 09:43:17;;;;;;;8.13;2.10;;;;;;;5.99;100.00;99009.00;5050918;28;20024;-77
2022/02/06 09:45:46;;;;;;;;;;;;;;;5.87;100.00;99003.25;5069631;28;20068;-75
2022/02/06 09:48:13;;;;;;;7.90;2.22;;;;;;;5.92;100.00;99003.56;5050012;28;20027;-77
2022/02/06 09:50:42;;;;;;;11.82;1.80;;;;;;;5.88;100.00;99002.28;5050156;28;20136;-76
2022/02/06 09:53:07;;;;;;;8.20;1.70;;;;;;;5.84;100.00;98998.31;5043148;28;20051;-77
2022/02/06 09:55:33;;;;;;;8.57;1.40;;;;;;;5.76;100.00;98978.00;5071323;28;20493;-76
2022/02/06 09:58:16;;;;;;;6.78;1.10;;;;;;;5.65;100.00;98984.50;5059174;28;20226;-76
2022/02/06 10:00:43;;;;;;;7.50;1.42;;;;;;;5.77;100.00;98984.13;5048497;28;20145;-77
2022/02/06 10:03:12;;;;;;;17.77;2.92;;;;;;;5.76;100.00;98975.38;5051453;28;20023;-76
2022/02/06 10:05:41;;;;;;;4.93;1.33;;;;;;;5.80;100.00;98974.00;5058284;28;20036;-76
2022/02/06 10:08:31;;;;;;;17.35;1.63;;;;;;;5.89;100.00;98970.28;5053748;28;20089;-76
2022/02/06 10:11:14;;;;;;;9.75;1.33;;;;;;;5.88;100.00;98963.38;5053745;28;20134;-75
2022/02/06 10:13:39;;;;;;;7.47;1.33;;;;;;;5.88;100.00;98957.25;5062843;28;20089;-76
2022/02/06 10:16:08;;;;;;;4.63;0.88;;;;;;;5.87;100.00;98953.75;5074649;28;20104;-76
2022/02/06 10:18:34;;;;;;;4.88;0.80;;;;;;;5.75;100.00;98947.22;5066817;28;20028;-76
2022/02/06 10:21:00;;;;;;;6.20;0.90;;;;;;;5.77;100.00;98947.88;5034084;28;20024;-76
2022/02/06 10:26:09;;;;;;;4.38;0.82;;;;;;;5.75;100.00;98931.31;5070513;28;20036;-76
2022/02/06 10:28:43;;;;;;;6.15;1.08;;;;;;;5.69;100.00;98921.47;5056038;28;20067;-76
2022/02/06 10:31:09;;;;;;;4.25;1.00;;;;;;;5.62;100.00;98916.03;5062874;28;20044;-76
2022/02/06 10:33:50;;;;;;;3.53;0.90;;;;;;;5.65;100.00;98918.31;5071500;28;20110;-76
2022/02/06 10:36:27;;;;;;;6.53;0.77;;;;;;;5.50;100.00;98897.09;5071340;28;20105;-75
2022/02/06 10:39:11;;;;;;;2.53;0.82;;;;;;;5.45;100.00;98904.69;5054770;28;20065;-74
2022/02/06 10:41:47;;;;;;;2.60;1.10;;;;;;;5.44;100.00;98887.19;5070820;28;20497;-74
2022/02/06 10:44:14;;;;;;;5.80;1.83;;;;;;;5.44;100.00;98892.47;5053558;28;20854;-76
2022/02/06 10:46:47;;;;;;;3.15;0.90;;;;;;;5.46;100.00;98887.03;5088639;28;20032;-76
2022/02/06 10:49:15;;;;;;;2.72;0.75;;;;;;;5.34;100.00;98897.19;5042624;28;20030;-75
2022/02/06 10:51:49;;;;;;;2.20;0.80;;;;;;;5.21;100.00;98892.44;5067211;28;20086;-75
2022/02/06 10:54:24;;;;;;;3.15;1.42;;;;;;;5.14;100.00;98888.00;5049268;28;20036;-76
2022/02/06 10:57:02;;;;;;;2.72;1.10;;;;;;;5.20;100.00;98892.63;5049823;28;20037;-76
2022/02/06 10:59:37;;;;;;;8.45;2.53;;;;;;;5.04;100.00;98881.13;5032881;28;20108;-74
2022/02/06 11:02:21;;;;;;;3.67;1.45;;;;;;;5.08;100.00;98882.44;5033083;28;20040;-76
2022/02/06 11:05:08;;;;;;;7.43;1.67;;;;;;;4.93;100.00;98873.56;5055431;28;20120;-75
2022/02/06 11:07:34;;;;;;;4.13;1.30;;;;;;;4.87;100.00;98863.69;5052546;28;20127;-75
2022/02/06 11:10:07;;;;;;;1.98;0.82;;;;;;;4.84;100.00;98851.59;5052427;28;20020;-75
2022/02/06 11:12:32;;;;;;;4.13;0.70;;;;;;;4.77;100.00;98842.72;5069166;28;20129;-74
2022/02/06 11:15:01;;;;;;;2.00;0.73;;;;;;;4.74;100.00;98843.06;5086685;28;20024;-75
2022/02/06 11:17:30;;;;;;;2.30;0.70;;;;;;;4.68;100.00;98832.34;5059005;28;20554;-75
2022/02/06 11:20:00;;;;;;;1.95;0.63;;;;;;;4.70;100.00;98830.34;5076272;28;20020;-75
2022/02/06 11:22:26;;;;;;;2.95;1.00;;;;;;;4.70;100.00;98833.81;5087110;28;20062;-75
2022/02/06 11:24:52;;;;;;;5.63;0.77;;;;;;;4.55;100.00;98824.97;5051657;28;20073;-73
2022/02/06 11:27:19;;;;;;;1.98;0.82;;;;;;;4.53;100.00;98819.03;5055704;28;20032;-75
2022/02/06 11:29:46;;;;;;;1.38;0.60;;;;;;;4.52;100.00;98820.84;5045276;28;20115;-75
2022/02/06 11:32:13;;;;;;;4.03;1.00;;;;;;;4.56;100.00;98808.94;5051823;28;20105;-75
2022/02/06 11:34:42;;;;;;;3.22;1.02;;;;;;;4.44;100.00;98797.09;5068672;28;20119;-75
2022/02/06 11:43:50;;;;;;;1.83;0.68;;;;;;;4.45;100.00;98793.47;4987563;28;20740;-75
2022/02/06 11:46:22;;;;;;;1.58;0.70;;;;;;;4.45;100.00;98785.53;5002733;28;20064;-76
2022/02/06 11:48:50;;;;;;;2.17;1.38;;;;;;;4.40;100.00;98775.47;5034455;28;20049;-76
2022/02/06 11:51:17;;;;;;;1.85;0.93;;;;;;;4.39;100.00;98762.44;5047409;28;20024;-76
2022/02/06 11:53:43;;;;;;;2.08;0.90;;;;;;;4.25;100.00;98758.69;5030198;28;20432;-76
2022/02/06 11:56:30;;;;;;;1.60;0.70;;;;;;;4.19;100.00;98752.28;5064184;28;20031;-75
2022/02/06 11:59:13;;;;;;;3.40;0.95;;;;;;;4.15;100.00;98761.53;5048494;28;20046;-76
2022/02/06 12:01:42;;;;;;;1.45;0.70;;;;;;;4.03;100.00;98754.97;5032071;28;20119;-76
2022/02/06 12:04:20;;;;;;;3.13;1.00;;;;;;;4.02;100.00;98748.84;5049431;28;20062;-76
2022/02/06 12:06:45;;;;;;;0.60;0.50;;;;;;;4.00;100.00;98750.00;5051748;28;20047;-76
2022/02/06 12:09:26;;;;;;;2.10;0.57;;;;;;;4.01;100.00;98752.47;5068074;28;20016;-76
2022/02/06 12:12:13;;;;;;;2.95;0.55;;;;;;;3.97;100.00;98750.34;5068993;28;20096;-75
2022/02/06 12:14:52;;;;;;;2.50;1.45;;;;;;;3.93;100.00;98743.75;5051122;28;20390;-76
2022/02/06 12:17:35;;;;;;;2.25;0.57;;;;;;;3.88;100.00;98740.78;5068669;28;20127;-75
2022/02/06 12:20:12;;;;;;;1.63;0.40;;;;;;;3.77;100.00;98729.59;5051856;28;20032;-76
2022/02/06 12:22:40;;;;;;;0.60;0.50;;;;;;;3.82;100.00;98723.81;5068755;28;20027;-76
2022/02/06 12:25:35;;;;;;;0.95;0.40;;;;;;;3.76;100.00;98717.38;5051309;28;20043;-76
2022/02/06 12:28:18;;;;;;;2.10;0.30;;;;;;;3.74;100.00;98710.63;5068232;28;20036;-76
2022/02/06 12:30:45;;;;;;;2.65;0.43;;;;;;;3.72;100.00;98694.97;5052000;28;20089;-76
2022/02/06 12:33:42;;;;;;;3.45;0.60;;;;;;;3.59;100.00;98689.38;5068512;28;20016;-76
2022/02/06 12:39:08;;;;;;;0.20;0.20;;;;;;;3.66;100.00;98700.91;5003551;28;20128;-75
2022/02/06 12:41:33;;;;;;;1.38;0.25;;;;;;;3.62;100.00;98686.41;5051854;28;20037;-75
2022/02/06 12:44:04;;;;;;;1.27;0.50;;;;;;;3.65;100.00;98677.31;5046603;28;20059;-75
2022/02/06 12:46:31;;;;;;;1.55;0.82;;;;;;;3.62;100.00;98686.41;5030182;28;20055;-75
2022/02/06 12:49:02;;;;;;;2.35;0.57;;;;;;;3.54;100.00;98670.59;5046571;28;20032;-75
2022/02/06 12:51:29;;;;;;;1.42;0.45;;;;;;;3.57;100.00;98652.59;5047965;28;20032;-75
2022/02/06 12:54:02;;;;;;;0.13;0.13;;;;;;;3.44;100.00;98654.13;5047646;28;20028;-76
2022/02/06 12:56:30;;;;;;;1.77;0.30;;;;;;;3.38;100.00;98647.72;5047848;28;20043;-76
2022/02/06 12:58:56;;;;;;;0.82;0.40;;;;;;;3.40;100.00;98644.91;5065824;28;20474;-75
2022/02/06 13:01:40;;;;;;;0.82;0.52;;;;;;;3.26;100.00;98647.25;5048019;28;20048;-75
2022/02/06 13:04:11;;;;;;;0.90;0.20;;;;;;;3.27;100.00;98653.31;5047909;28;20577;-75
2022/02/06 13:06:38;;;;;;;1.85;0.40;;;;;;;3.23;100.00;98644.94;5048232;28;20275;-75
2022/02/06 13:09:10;;;;;;;2.58;0.60;;;;;;;3.12;100.00;98650.56;5048096;28;20017;-75
2022/02/06 13:11:48;;;;;;;1.70;0.38;;;;;;;3.06;100.00;98645.94;5048356;28;20045;-75
2022/02/06 13:14:32;;;;;;;2.00;0.50;;;;;;;3.03;100.00;98643.63;5031118;28;20040;-75
2022/02/06 13:19:35;;;;;;;0.82;0.22;;;;;;;2.84;100.00;98632.44;5048105;28;20047;-75
2022/02/06 13:22:33;;;;;;;0.20;0.10;;;;;;;2.80;100.00;98610.00;5048397;28;20038;-75
2022/02/06 13:25:27;;;;;;;1.98;0.30;;;;;;;2.84;100.00;98619.25;5047616;28;20398;-76
2022/02/06 13:30:44;;;;;;;1.23;0.70;;;;;;;2.70;100.00;98612.81;5065700;28;20032;-75
2022/02/06 13:33:17;;;;;;;1.25;0.50;;;;;;;2.71;100.00;98603.09;5047936;28;20068;-75
2022/02/06 13:35:55;;;;;;;1.85;0.60;;;;;;;2.68;100.00;98595.53;5047908;28;20075;-75
2022/02/06 13:38:20;;;;;;;0.40;0.30;;;;;;;2.78;100.00;98596.19;5047998;28;20401;-76
2022/02/06 13:40:51;;;;;;;0.40;0.40;;;;;;;2.73;100.00;98595.84;5047963;28;20039;-76
2022/02/06 13:43:24;;;;;;;0.68;0.40;;;;;;;2.66;100.00;98590.41;5047792;28;20040;-75
2022/02/06 13:45:54;;;;;;;0.45;0.45;;;;;;;2.69;100.00;98578.72;5047525;28;20040;-76
2022/02/06 13:48:21;;;;;;;2.08;0.40;;;;;;;2.70;100.00;98591.75;5047905;28;20040;-76